createdAt,value
2017-09-21T00:01:41.938Z,12.73
2017-09-21T00:04:16.035Z,12.70
2017-09-21T00:06:50.080Z,12.69
2017-09-21T00:09:18.804Z,12.69
2017-09-21T00:11:47.081Z,12.71
2017-09-21T00:14:15.397Z,12.73
2017-09-21T00:16:43.724Z,12.71
2017-09-21T00:19:12.089Z,12.71
2017-09-21T00:21:40.479Z,12.73
2017-09-21T00:24:08.793Z,12.70
2017-09-21T00:26:37.509Z,12.70
2017-09-21T00:29:05.839Z,12.72
2017-09-21T00:31:34.156Z,12.70
2017-09-21T00:34:02.510Z,12.71
2017-09-21T00:36:31.190Z,12.69
2017-09-21T00:38:59.499Z,12.67
2017-09-21T00:41:27.839Z,12.68
2017-09-21T00:43:56.147Z,12.70
2017-09-21T00:46:24.487Z,12.69
2017-09-21T00:48:52.798Z,12.68
2017-09-21T00:51:21.112Z,12.66
2017-09-21T00:53:49.571Z,12.63
2017-09-21T00:56:17.990Z,12.64
2017-09-21T00:58:46.939Z,12.63
2017-09-21T01:01:15.299Z,12.60
2017-09-21T01:03:43.633Z,12.60
2017-09-21T01:06:12.035Z,12.58
2017-09-21T01:08:40.445Z,12.58
2017-09-21T01:11:08.797Z,12.58
2017-09-21T01:13:37.195Z,12.57
2017-09-21T01:16:05.579Z,12.56
2017-09-21T01:18:33.905Z,12.55
2017-09-21T01:21:02.211Z,12.57
2017-09-21T01:23:30.595Z,12.51
2017-09-21T01:25:58.942Z,12.49
2017-09-21T01:28:27.263Z,12.45
2017-09-21T01:30:55.604Z,12.45
2017-09-21T01:33:23.896Z,12.45
2017-09-21T01:35:52.369Z,12.45
2017-09-21T01:38:20.678Z,12.48
2017-09-21T01:40:49.123Z,12.53
2017-09-21T01:43:17.427Z,12.53
2017-09-21T01:45:45.756Z,12.53
2017-09-21T01:48:14.151Z,12.52
2017-09-21T01:50:42.507Z,12.52
2017-09-21T01:53:10.844Z,12.56
2017-09-21T01:55:39.201Z,12.54
2017-09-21T01:58:07.687Z,12.52
2017-09-21T02:00:36.216Z,12.51
2017-09-21T02:03:04.512Z,12.49
2017-09-21T02:05:33.611Z,12.45
2017-09-21T02:08:01.945Z,12.40
2017-09-21T02:10:30.481Z,12.41
2017-09-21T02:12:58.832Z,12.43
2017-09-21T02:15:27.259Z,12.45
2017-09-21T02:17:55.560Z,12.46
2017-09-21T02:20:23.877Z,12.44
2017-09-21T02:22:52.295Z,12.44
2017-09-21T02:25:20.775Z,12.44
2017-09-21T02:27:49.067Z,12.41
2017-09-21T02:30:17.375Z,12.40
2017-09-21T02:32:45.731Z,12.41
2017-09-21T02:35:14.060Z,12.40
2017-09-21T02:37:42.447Z,12.40
2017-09-21T02:40:10.792Z,12.38
2017-09-21T02:42:39.113Z,12.39
2017-09-21T02:45:07.443Z,12.36
2017-09-21T02:47:42.614Z,12.34
2017-09-21T02:50:10.967Z,12.34
2017-09-21T02:52:39.318Z,12.32
2017-09-21T02:55:07.693Z,12.33
2017-09-21T02:57:36.087Z,12.33
2017-09-21T03:00:04.461Z,12.30
2017-09-21T03:02:32.873Z,12.26
2017-09-21T03:05:01.375Z,12.23
2017-09-21T03:07:29.747Z,12.28
2017-09-21T03:09:58.078Z,12.25
2017-09-21T03:12:26.458Z,12.22
2017-09-21T03:14:54.737Z,12.25
2017-09-21T03:17:23.080Z,12.27
2017-09-21T03:19:51.408Z,12.26
2017-09-21T03:22:19.838Z,12.26
2017-09-21T03:24:48.135Z,12.26
2017-09-21T03:27:16.531Z,12.25
2017-09-21T03:29:44.855Z,12.25
2017-09-21T03:32:13.225Z,12.23
2017-09-21T03:34:41.620Z,12.19
2017-09-21T03:37:10.015Z,12.19
2017-09-21T03:39:38.462Z,12.19
2017-09-21T03:42:06.820Z,12.17
2017-09-21T03:44:35.120Z,12.15
2017-09-21T03:47:03.505Z,12.15
2017-09-21T03:49:31.811Z,12.14
2017-09-21T03:52:00.561Z,12.21
2017-09-21T03:54:28.893Z,12.17
2017-09-21T03:56:57.308Z,12.17
2017-09-21T03:59:25.645Z,12.23
2017-09-21T04:04:49.544Z,12.23
2017-09-21T04:07:17.885Z,12.21
2017-09-21T04:09:52.736Z,12.24
2017-09-21T04:12:21.068Z,12.27
2017-09-21T04:14:49.412Z,12.25
2017-09-21T04:17:17.785Z,12.22
2017-09-21T04:19:46.081Z,12.21
2017-09-21T04:22:14.406Z,12.20
2017-09-21T04:24:42.684Z,12.18
2017-09-21T04:27:11.128Z,12.20
2017-09-21T04:29:39.388Z,12.21
2017-09-21T04:32:07.728Z,12.22
2017-09-21T04:34:35.981Z,12.21
2017-09-21T04:37:04.952Z,12.22
2017-09-21T04:39:33.223Z,12.24
2017-09-21T04:42:01.557Z,12.25
2017-09-21T04:44:29.930Z,12.28
2017-09-21T04:46:58.307Z,12.27
2017-09-21T04:49:26.639Z,12.28
2017-09-21T04:51:54.960Z,12.24
2017-09-21T04:54:23.241Z,12.21
2017-09-21T04:56:51.587Z,12.25
2017-09-21T04:59:19.942Z,12.28
2017-09-21T05:01:48.269Z,12.31
2017-09-21T05:04:17.348Z,12.29
2017-09-21T05:06:46.445Z,12.26
2017-09-21T05:09:14.692Z,12.25
2017-09-21T05:11:42.964Z,12.28
2017-09-21T05:14:11.283Z,12.28
2017-09-21T05:16:39.892Z,12.31
2017-09-21T05:19:08.157Z,12.35
2017-09-21T05:21:36.443Z,12.35
2017-09-21T05:24:04.701Z,12.36
2017-09-21T05:26:32.985Z,12.43
2017-09-21T05:29:01.408Z,12.46
2017-09-21T05:31:29.693Z,12.49
2017-09-21T05:33:58.012Z,12.48
2017-09-21T05:36:26.310Z,12.49
2017-09-21T05:38:54.623Z,12.50
2017-09-21T05:41:22.939Z,12.51
2017-09-21T05:43:51.353Z,12.56
2017-09-21T05:46:19.643Z,12.54
2017-09-21T05:48:48.146Z,12.56
2017-09-21T05:51:16.404Z,12.59
2017-09-21T05:53:44.633Z,12.67
2017-09-21T05:56:12.885Z,12.68
2017-09-21T05:58:41.131Z,12.74
2017-09-21T06:01:09.582Z,12.88
2017-09-21T06:03:37.857Z,12.95
2017-09-21T06:06:06.332Z,13.00
2017-09-21T06:08:34.892Z,13.12
2017-09-21T06:11:03.312Z,13.05
2017-09-21T06:13:31.636Z,13.17
2017-09-21T06:16:00.265Z,13.27
2017-09-21T06:18:28.540Z,13.24
2017-09-21T06:20:57.104Z,13.30
2017-09-21T06:23:25.822Z,13.34
2017-09-21T06:25:54.084Z,13.39
2017-09-21T06:28:22.497Z,13.42
2017-09-21T06:30:50.758Z,13.59
2017-09-21T06:33:20.698Z,13.63
2017-09-21T06:35:50.143Z,13.68
2017-09-21T06:38:23.801Z,13.66
2017-09-21T06:40:53.785Z,13.66
2017-09-21T06:43:22.529Z,13.63
2017-09-21T06:45:50.944Z,13.54
2017-09-21T06:48:19.451Z,13.67
2017-09-21T06:50:47.907Z,13.77
2017-09-21T06:53:16.257Z,13.81
2017-09-21T06:55:44.591Z,13.81
2017-09-21T06:58:12.854Z,13.95
2017-09-21T07:00:41.706Z,13.92
2017-09-21T07:03:10.270Z,13.89
2017-09-21T07:05:39.717Z,13.92
2017-09-21T07:08:07.984Z,13.98
2017-09-21T07:10:49.476Z,13.97
2017-09-21T07:13:18.173Z,14.06
2017-09-21T07:15:47.572Z,14.23
2017-09-21T07:18:22.091Z,14.31
2017-09-21T07:20:51.703Z,14.29
2017-09-21T07:23:21.601Z,14.40
2017-09-21T07:25:53.800Z,14.50
2017-09-21T07:28:24.769Z,14.54
2017-09-21T07:30:55.302Z,14.57
2017-09-21T07:33:24.725Z,14.61
2017-09-21T07:35:53.486Z,14.43
2017-09-21T07:38:21.802Z,14.46
2017-09-21T07:40:50.070Z,14.43
2017-09-21T07:43:18.381Z,14.44
2017-09-21T07:45:46.677Z,14.42
2017-09-21T07:48:15.041Z,14.56
2017-09-21T07:50:43.393Z,14.68
2017-09-21T07:53:11.725Z,14.69
2017-09-21T07:55:40.045Z,14.74
2017-09-21T07:58:08.411Z,14.72
2017-09-21T08:03:16.378Z,14.57
2017-09-21T08:05:45.488Z,14.58
2017-09-21T08:08:14.356Z,14.57
2017-09-21T08:10:42.668Z,14.62
2017-09-21T08:13:10.927Z,14.57
2017-09-21T08:15:39.346Z,14.72
2017-09-21T08:18:08.457Z,15.03
2017-09-21T08:20:36.759Z,15.18
2017-09-21T08:23:05.005Z,15.19
2017-09-21T08:25:33.265Z,15.07
2017-09-21T08:28:01.516Z,15.29
2017-09-21T08:30:30.076Z,15.44
2017-09-21T08:32:58.308Z,15.32
2017-09-21T08:35:26.568Z,15.35
2017-09-21T08:37:54.849Z,15.45
2017-09-21T08:40:23.136Z,15.41
2017-09-21T08:42:51.528Z,15.58
2017-09-21T08:45:19.835Z,15.53
2017-09-21T08:47:48.348Z,15.66
2017-09-21T08:50:16.863Z,15.80
2017-09-21T08:52:45.121Z,16.03
2017-09-21T08:55:13.609Z,16.10
2017-09-21T08:57:42.330Z,16.17
2017-09-21T09:00:10.585Z,16.19
2017-09-21T09:02:39.420Z,16.29
2017-09-21T09:05:07.685Z,16.46
2017-09-21T09:07:37.428Z,16.37
2017-09-21T09:10:06.997Z,16.55
2017-09-21T09:12:35.685Z,16.53
2017-09-21T09:15:04.265Z,16.54
2017-09-21T09:17:39.616Z,16.66
2017-09-21T09:20:10.468Z,16.87
2017-09-21T09:22:39.629Z,17.00
2017-09-21T09:25:07.919Z,17.50
2017-09-21T09:27:36.185Z,17.62
2017-09-21T09:30:04.528Z,17.97
2017-09-21T09:32:32.808Z,17.96
2017-09-21T09:35:01.052Z,17.99
2017-09-21T09:37:29.653Z,17.97
2017-09-21T09:39:58.020Z,17.93
2017-09-21T09:42:26.349Z,17.81
2017-09-21T09:44:54.602Z,17.54
2017-09-21T09:47:22.936Z,17.40
2017-09-21T09:49:51.183Z,17.38
2017-09-21T09:52:19.521Z,17.56
2017-09-21T09:54:47.735Z,18.18
2017-09-21T09:57:16.040Z,18.81
2017-09-21T09:59:44.676Z,19.54
2017-09-21T10:02:14.996Z,20.96
2017-09-21T10:04:43.285Z,22.13
2017-09-21T10:07:11.566Z,21.44
2017-09-21T10:09:40.244Z,20.52
2017-09-21T10:12:08.520Z,20.29
2017-09-21T10:14:36.738Z,20.27
2017-09-21T10:17:05.061Z,19.78
2017-09-21T10:19:33.289Z,20.63
2017-09-21T10:22:01.945Z,21.53
2017-09-21T10:24:30.327Z,21.19
2017-09-21T10:26:58.599Z,20.46
2017-09-21T10:29:26.824Z,20.09
2017-09-21T10:31:55.076Z,19.91
2017-09-21T10:34:23.314Z,20.25
2017-09-21T10:36:51.766Z,20.44
2017-09-21T10:39:20.181Z,21.36
2017-09-21T10:41:48.457Z,20.57
2017-09-21T10:44:16.764Z,20.73
2017-09-21T10:46:45.060Z,20.06
2017-09-21T10:49:14.237Z,19.94
2017-09-21T10:51:42.590Z,19.37
2017-09-21T10:54:10.838Z,19.27
2017-09-21T10:56:39.141Z,19.05
2017-09-21T10:59:07.419Z,18.77
2017-09-21T11:01:35.730Z,18.82
2017-09-21T11:04:04.022Z,18.53
2017-09-21T11:06:32.757Z,18.50
2017-09-21T11:09:00.994Z,18.69
2017-09-21T11:11:29.309Z,18.68
2017-09-21T11:13:57.832Z,18.63
2017-09-21T11:16:26.103Z,18.69
2017-09-21T11:18:54.481Z,18.60
2017-09-21T11:21:23.347Z,18.44
2017-09-21T11:23:51.616Z,18.19
2017-09-21T11:26:19.907Z,17.92
2017-09-21T11:28:48.159Z,17.74
2017-09-21T11:31:18.004Z,17.71
2017-09-21T11:33:46.548Z,17.77
2017-09-21T11:36:14.889Z,17.72
2017-09-21T11:38:43.142Z,17.73
2017-09-21T11:41:11.491Z,17.77
2017-09-21T11:43:39.710Z,17.56
2017-09-21T11:46:07.966Z,17.58
2017-09-21T11:48:36.229Z,17.40
2017-09-21T11:51:04.484Z,17.29
2017-09-21T11:53:32.815Z,17.17
2017-09-21T11:56:01.076Z,17.05
2017-09-21T11:58:29.343Z,17.02
2017-09-21T12:00:57.606Z,16.98
2017-09-21T12:03:25.838Z,16.88
2017-09-21T12:05:56.419Z,16.85
2017-09-21T12:08:25.114Z,16.82
2017-09-21T12:10:53.471Z,16.72
2017-09-21T12:13:21.728Z,16.67
2017-09-21T12:15:50.177Z,16.65
2017-09-21T12:18:18.430Z,16.63
2017-09-21T12:20:46.689Z,16.74
2017-09-21T12:23:15.119Z,16.64
2017-09-21T12:25:43.380Z,16.69
2017-09-21T12:28:11.640Z,16.65
2017-09-21T12:30:39.939Z,16.64
2017-09-21T12:33:08.337Z,16.64
2017-09-21T12:35:36.622Z,16.59
2017-09-21T12:38:05.030Z,16.57
2017-09-21T12:40:33.293Z,16.63
2017-09-21T12:43:01.579Z,16.52
2017-09-21T12:45:29.897Z,16.53
2017-09-21T12:47:58.137Z,16.53
2017-09-21T12:50:26.447Z,16.57
2017-09-21T12:52:54.673Z,16.56
2017-09-21T12:55:23.242Z,16.49
2017-09-21T12:57:51.477Z,16.52
2017-09-21T13:00:19.752Z,16.49
2017-09-21T13:02:48.008Z,16.48
2017-09-21T13:05:16.279Z,16.54
2017-09-21T13:07:44.569Z,16.48
2017-09-21T13:10:12.910Z,16.42
2017-09-21T13:12:41.176Z,16.45
2017-09-21T13:15:09.437Z,16.43
2017-09-21T13:17:37.678Z,16.46
2017-09-21T13:20:05.952Z,16.44
2017-09-21T13:22:34.222Z,16.42
2017-09-21T13:25:02.555Z,16.50
2017-09-21T13:27:30.996Z,16.48
2017-09-21T13:29:59.249Z,16.44
2017-09-21T13:32:27.541Z,16.49
2017-09-21T13:34:55.853Z,16.49
2017-09-21T13:37:24.313Z,16.44
2017-09-21T13:39:52.624Z,16.45
2017-09-21T13:42:20.985Z,16.50
2017-09-21T13:44:49.220Z,16.49
2017-09-21T13:47:17.496Z,16.52
2017-09-21T13:49:45.800Z,16.53
2017-09-21T13:52:14.385Z,16.59
2017-09-21T13:54:42.729Z,16.54
2017-09-21T13:57:11.022Z,16.62
2017-09-21T13:59:39.845Z,16.61
2017-09-21T14:02:08.085Z,16.61
2017-09-21T14:04:36.344Z,16.61
2017-09-21T14:07:04.616Z,16.67
2017-09-21T14:09:32.850Z,16.70
2017-09-21T14:12:01.204Z,16.75
2017-09-21T14:14:29.457Z,16.60
2017-09-21T14:16:57.736Z,16.56
2017-09-21T14:19:25.969Z,16.54
2017-09-21T14:22:08.684Z,16.53
2017-09-21T14:24:37.772Z,16.56
2017-09-21T14:27:06.744Z,16.58
2017-09-21T14:29:34.997Z,16.60
2017-09-21T14:32:03.298Z,16.61
2017-09-21T14:34:31.694Z,16.61
2017-09-21T14:37:00.080Z,16.65
2017-09-21T14:39:28.356Z,16.70
2017-09-21T14:41:56.701Z,16.62
2017-09-21T14:44:25.025Z,16.63
2017-09-21T14:46:53.317Z,16.58
2017-09-21T14:49:26.948Z,16.55
2017-09-21T14:51:56.213Z,16.48
2017-09-21T14:54:24.499Z,16.47
2017-09-21T14:56:52.783Z,16.36
2017-09-21T14:59:21.001Z,16.41
2017-09-21T15:01:49.321Z,16.37
2017-09-21T15:04:26.030Z,16.38
2017-09-21T15:06:54.710Z,16.39
2017-09-21T15:09:26.990Z,16.38
2017-09-21T15:12:12.953Z,16.32
2017-09-21T15:14:48.860Z,16.35
2017-09-21T15:17:35.807Z,16.38
2017-09-21T15:20:16.611Z,16.43
2017-09-21T15:22:50.382Z,16.48
2017-09-21T15:25:20.980Z,16.37
2017-09-21T15:27:56.338Z,16.33
2017-09-21T15:30:32.430Z,16.29
2017-09-21T15:33:07.989Z,16.31
2017-09-21T15:35:55.143Z,16.39
2017-09-21T15:38:26.155Z,16.33
2017-09-21T15:41:08.284Z,16.30
2017-09-21T15:43:44.790Z,16.31
2017-09-21T15:46:15.412Z,16.41
2017-09-21T15:48:52.324Z,16.08
2017-09-21T15:51:30.644Z,16.28
2017-09-21T15:54:09.596Z,16.38
2017-09-21T15:56:52.933Z,16.38
2017-09-21T15:59:26.384Z,16.36
2017-09-21T16:01:59.444Z,16.29
2017-09-21T16:04:40.279Z,16.33
2017-09-21T16:07:24.493Z,16.22
2017-09-21T16:09:56.432Z,16.21
2017-09-21T16:12:35.432Z,16.18
2017-09-21T16:15:11.418Z,16.20
2017-09-21T16:17:54.563Z,16.19
2017-09-21T16:20:28.473Z,16.20
2017-09-21T16:22:58.642Z,16.10
2017-09-21T16:25:30.574Z,16.12
2017-09-21T16:28:04.373Z,16.04
2017-09-21T16:30:39.258Z,16.02
2017-09-21T16:33:14.128Z,15.97
2017-09-21T16:35:47.312Z,15.95
2017-09-21T16:38:16.852Z,15.94
2017-09-21T16:40:45.660Z,15.91
2017-09-21T16:43:16.269Z,15.88
2017-09-21T16:45:51.817Z,15.84
2017-09-21T16:48:26.629Z,15.82
2017-09-21T16:53:34.803Z,15.79
2017-09-21T16:56:11.824Z,15.73
2017-09-21T16:58:42.581Z,15.71
2017-09-21T17:01:13.509Z,15.69
2017-09-21T17:03:44.959Z,15.63
2017-09-21T17:06:17.040Z,15.61
2017-09-21T17:08:46.565Z,15.59
2017-09-21T17:11:20.347Z,15.57
2017-09-21T17:13:57.770Z,15.54
2017-09-21T17:16:32.491Z,15.49
2017-09-21T17:19:02.385Z,15.49
2017-09-21T17:21:44.872Z,15.47
2017-09-21T17:24:24.777Z,15.42
2017-09-21T17:26:57.753Z,15.39
2017-09-21T17:29:31.510Z,15.37
2017-09-21T17:32:04.884Z,15.37
2017-09-21T17:34:34.045Z,15.34
2017-09-21T17:37:10.210Z,15.30
2017-09-21T17:39:38.775Z,15.29
2017-09-21T17:42:09.463Z,15.27
2017-09-21T17:44:38.262Z,15.25
2017-09-21T17:47:10.272Z,15.18
2017-09-21T17:49:49.390Z,15.16
2017-09-21T17:52:30.134Z,14.72
2017-09-21T17:55:05.780Z,15.13
2017-09-21T17:57:43.111Z,15.10
2017-09-21T18:00:14.252Z,15.04
2017-09-21T18:02:47.027Z,15.01
2017-09-21T18:05:23.722Z,14.98
2017-09-21T18:08:00.347Z,14.99
2017-09-21T18:10:28.708Z,15.02
2017-09-21T18:13:04.537Z,14.99
2017-09-21T18:15:41.764Z,14.96
2017-09-21T18:18:17.702Z,14.95
2017-09-21T18:20:48.738Z,14.92
2017-09-21T18:23:20.770Z,14.89
2017-09-21T18:26:00.346Z,14.84
2017-09-21T18:28:38.978Z,14.80
2017-09-21T18:31:07.687Z,14.76
2017-09-21T18:33:57.607Z,14.72
2017-09-21T18:36:54.297Z,14.64
2017-09-21T18:39:23.613Z,14.61
2017-09-21T18:41:57.198Z,14.61
2017-09-21T18:44:28.548Z,14.56
2017-09-21T18:47:06.503Z,14.49
2017-09-21T18:49:35.096Z,14.40
2017-09-21T18:52:05.575Z,14.38
2017-09-21T18:54:42.846Z,14.22
2017-09-21T18:57:14.108Z,14.34
2017-09-21T18:59:45.404Z,14.32
2017-09-21T19:02:14.568Z,14.26
2017-09-21T19:04:47.205Z,14.22
2017-09-21T19:07:17.929Z,14.19
2017-09-21T19:09:46.664Z,14.17
2017-09-21T19:12:15.143Z,14.11
2017-09-21T19:14:43.575Z,14.07
2017-09-21T19:17:12.135Z,13.99
2017-09-21T19:19:40.549Z,13.95
2017-09-21T19:22:09.260Z,13.88
2017-09-21T19:24:37.906Z,13.82
2017-09-21T19:27:06.427Z,13.77
2017-09-21T19:29:35.124Z,13.74
2017-09-21T19:32:08.895Z,13.74
2017-09-21T19:34:43.650Z,13.71
2017-09-21T19:37:13.232Z,13.69
2017-09-21T19:39:42.935Z,13.67
2017-09-21T19:42:16.396Z,13.63
2017-09-21T19:44:51.836Z,13.56
2017-09-21T19:47:30.276Z,13.52
2017-09-21T19:50:10.104Z,13.48
2017-09-21T19:52:41.055Z,13.42
2017-09-21T19:55:10.119Z,13.42
2017-09-21T19:57:41.543Z,13.39
2017-09-21T20:00:16.458Z,13.33
2017-09-21T20:02:57.584Z,13.32
2017-09-21T20:05:29.081Z,13.27
2017-09-21T20:07:58.157Z,13.22
2017-09-21T20:10:47.958Z,13.20
2017-09-21T20:13:29.645Z,13.16
2017-09-21T20:15:59.556Z,13.14
2017-09-21T20:18:29.917Z,13.12
2017-09-21T20:21:02.403Z,13.11
2017-09-21T20:23:41.256Z,13.15
2017-09-21T20:26:35.393Z,13.12
2017-09-21T20:30:16.265Z,13.15
2017-09-21T20:32:44.882Z,13.13
2017-09-21T20:35:13.301Z,13.13
2017-09-21T20:37:43.203Z,13.13
2017-09-21T20:40:11.846Z,13.12
2017-09-21T20:42:40.164Z,13.13
2017-09-21T20:45:09.060Z,13.13
2017-09-21T20:47:37.885Z,13.13
2017-09-21T20:50:06.281Z,13.13
2017-09-21T20:52:34.960Z,13.13
2017-09-21T20:55:03.969Z,13.13
2017-09-21T20:57:32.348Z,13.14
2017-09-21T21:00:00.777Z,13.10
2017-09-21T21:02:29.487Z,13.07
2017-09-21T21:04:57.926Z,13.07
2017-09-21T21:07:26.762Z,13.05
2017-09-21T21:09:55.415Z,13.03
2017-09-21T21:12:23.906Z,13.04
2017-09-21T21:14:52.566Z,13.05
2017-09-21T21:17:21.292Z,13.07
2017-09-21T21:19:51.049Z,13.06
2017-09-21T21:22:19.764Z,13.05
2017-09-21T21:24:49.315Z,13.06
2017-09-21T21:27:17.821Z,13.06
2017-09-21T21:29:46.117Z,13.06
2017-09-21T21:32:14.596Z,13.08
2017-09-21T21:34:44.940Z,13.09
2017-09-21T21:37:14.119Z,13.13
2017-09-21T21:39:42.496Z,13.12
2017-09-21T21:42:10.920Z,13.12
2017-09-21T21:44:39.195Z,13.11
2017-09-21T21:47:07.630Z,13.12
2017-09-21T21:49:36.271Z,13.14
2017-09-21T21:52:06.116Z,13.16
2017-09-21T21:54:35.148Z,13.19
2017-09-21T21:57:05.340Z,13.18
2017-09-21T21:59:33.996Z,13.18
2017-09-21T22:02:02.341Z,13.22
2017-09-21T22:04:30.692Z,13.24
2017-09-21T22:07:00.064Z,13.22
2017-09-21T22:09:29.077Z,13.21
2017-09-21T22:11:57.606Z,13.23
2017-09-21T22:14:26.079Z,13.22
2017-09-21T22:16:54.601Z,13.25
2017-09-21T22:19:23.108Z,13.26
2017-09-21T22:21:52.566Z,13.21
2017-09-21T22:24:21.666Z,13.18
2017-09-21T22:26:50.453Z,13.17
2017-09-21T22:29:20.429Z,13.21
2017-09-21T22:31:49.249Z,13.20
2017-09-21T22:34:17.525Z,13.20
2017-09-21T22:36:45.885Z,13.22
2017-09-21T22:39:14.221Z,13.21
2017-09-21T22:41:42.749Z,13.20
2017-09-21T22:44:11.043Z,13.22
2017-09-21T22:46:39.417Z,13.20
2017-09-21T22:49:07.740Z,13.17
2017-09-21T22:51:36.106Z,13.19
2017-09-21T22:54:04.457Z,13.21
2017-09-21T22:56:32.801Z,13.24
2017-09-21T22:59:02.345Z,13.25
2017-09-21T23:01:31.644Z,13.23
2017-09-21T23:04:00.684Z,13.22
2017-09-21T23:06:29.360Z,13.26
2017-09-21T23:08:57.766Z,13.27
2017-09-21T23:11:29.508Z,13.29
2017-09-21T23:13:58.008Z,13.29
2017-09-21T23:16:26.919Z,13.29
2017-09-21T23:18:56.080Z,13.28
2017-09-21T23:21:24.479Z,13.26
2017-09-21T23:23:52.761Z,13.20
2017-09-21T23:26:21.278Z,13.18
2017-09-21T23:28:49.795Z,13.21
2017-09-21T23:31:18.425Z,13.20
2017-09-21T23:33:47.405Z,13.20
2017-09-21T23:36:16.574Z,13.21
2017-09-21T23:38:45.037Z,13.18
2017-09-21T23:41:17.146Z,13.18
2017-09-21T23:43:45.708Z,13.18
2017-09-21T23:46:14.441Z,13.18
2017-09-21T23:48:43.485Z,13.17
2017-09-21T23:51:13.215Z,13.15
2017-09-21T23:53:41.892Z,13.14
2017-09-21T23:56:10.392Z,13.17
2017-09-21T23:58:39.728Z,13.16
